Terminal Aerodrome Forecast
Issued by NWS

Home | Current Version | Previous Version | Text Only | Print | Product List | Glossary On
Versions: 1 2 3 4 5 6 7 8 9 10 11 12 13
000
FTUS42 TJSJ 061720
TAFISX
TAF
TISX 061720Z 0618/0718 11013KT P6SM VCSH SCT025 BKN050
     FM062200 05005KT P6SM FEW025 SCT060
     FM071300 09010KT P6SM SCT025 BKN250=

USA.gov is the U.S. government's official web portal to all federal, state and local government web resources and services.